Time;durP1;ratioP1;P1;durP2;ratioP2;P2;SDS_P1;SDS_P2;PMS_P1;PMS_P2;Temp;Humidity;BMP_temperature;BMP_pressure;BME280_temperature;BME280_humidity;BME280_pressure;Samples;Min_cycle;Max_cycle;Signal;HPM_P1;HPM_P2
2023/09/09 00:01:32;;;;;;;12.90;10.00;;;20.80;99.90;;;;;;5033485;28;20044;-56
2023/09/09 00:03:59;;;;;;;13.75;11.10;;;20.80;99.90;;;;;;5035104;28;20594;-57
2023/09/09 00:06:24;;;;;;;14.50;11.35;;;20.80;99.90;;;;;;5035016;28;20059;-56
2023/09/09 00:08:50;;;;;;;16.70;11.77;;;20.80;99.90;;;;;;5038086;28;20041;-58
2023/09/09 00:11:16;;;;;;;13.15;11.75;;;20.80;99.90;;;;;;5032920;28;20052;-58
2023/09/09 00:13:42;;;;;;;12.88;10.52;;;20.70;99.90;;;;;;5037684;28;20047;-59
2023/09/09 00:16:08;;;;;;;12.90;10.43;;;20.70;99.90;;;;;;5035887;28;20176;-57
2023/09/09 00:18:34;;;;;;;10.88;9.77;;;20.60;99.90;;;;;;5043749;28;20412;-58
2023/09/09 00:21:00;;;;;;;10.70;9.63;;;20.50;99.90;;;;;;5037393;28;20081;-57
2023/09/09 00:23:26;;;;;;;11.45;9.38;;;20.40;99.90;;;;;;5038655;28;20114;-57
2023/09/09 00:25:52;;;;;;;10.45;9.30;;;20.40;99.90;;;;;;5037265;28;20175;-58
2023/09/09 00:28:18;;;;;;;14.18;10.68;;;20.40;99.90;;;;;;5035795;28;20049;-58
2023/09/09 00:30:43;;;;;;;16.23;12.00;;;20.40;99.90;;;;;;5039637;28;20048;-56
2023/09/09 00:33:09;;;;;;;14.52;10.88;;;20.30;99.90;;;;;;5038568;28;20507;-58
2023/09/09 00:35:38;;;;;;;12.38;10.23;;;20.30;99.90;;;;;;5037757;28;20388;-57
2023/09/09 00:38:06;;;;;;;13.43;10.75;;;20.30;99.90;;;;;;5032722;28;20071;-58
2023/09/09 00:40:31;;;;;;;14.57;11.82;;;20.30;99.90;;;;;;5037056;28;20091;-58
2023/09/09 00:42:57;;;;;;;13.32;11.15;;;20.30;99.90;;;;;;5038162;28;20128;-58
2023/09/09 00:45:24;;;;;;;12.25;10.13;;;20.30;99.90;;;;;;5041107;28;20076;-56
2023/09/09 00:47:50;;;;;;;11.40;10.20;;;20.30;99.90;;;;;;5034050;28;20041;-58
2023/09/09 00:50:16;;;;;;;11.25;10.05;;;20.30;99.90;;;;;;5035345;28;20070;-56
2023/09/09 00:52:42;;;;;;;10.20;9.20;;;20.30;99.90;;;;;;5024387;28;20079;-58
2023/09/09 00:55:11;;;;;;;11.70;9.82;;;20.20;99.90;;;;;;5025914;28;20048;-56
2023/09/09 00:57:37;;;;;;;10.68;9.20;;;20.20;99.90;;;;;;5039640;28;20037;-58
2023/09/09 01:00:12;;;;;;;9.18;8.15;;;20.20;99.90;;;;;;5033777;28;20562;-58
2023/09/09 01:02:41;;;;;;;9.27;8.38;;;20.20;99.90;;;;;;5037409;28;20032;-58
2023/09/09 01:05:08;;;;;;;10.43;9.10;;;20.10;99.90;;;;;;5041726;28;20048;-57
2023/09/09 01:07:45;;;;;;;11.55;9.13;;;20.10;99.90;;;;;;5035332;28;20218;-57
2023/09/09 01:10:11;;;;;;;10.30;9.10;;;20.10;99.90;;;;;;5044648;28;20164;-55
2023/09/09 01:12:37;;;;;;;11.13;8.95;;;20.10;99.90;;;;;;5041204;28;20041;-56
2023/09/09 01:15:07;;;;;;;11.98;9.68;;;20.00;99.90;;;;;;5045832;28;20051;-58
2023/09/09 01:17:34;;;;;;;10.82;9.00;;;20.00;99.90;;;;;;5046353;28;20033;-57
2023/09/09 01:20:02;;;;;;;10.40;8.63;;;20.00;99.90;;;;;;5043873;28;20045;-58
2023/09/09 01:22:33;;;;;;;13.52;9.02;;;19.90;99.90;;;;;;5045429;28;20033;-58
2023/09/09 01:24:59;;;;;;;10.88;9.18;;;19.90;99.90;;;;;;5040084;28;20100;-57
2023/09/09 01:27:25;;;;;;;10.73;7.85;;;19.90;99.90;;;;;;5047151;28;20047;-58
2023/09/09 01:29:51;;;;;;;10.15;8.25;;;19.90;99.90;;;;;;5046746;28;20479;-57
2023/09/09 01:32:17;;;;;;;11.82;9.25;;;19.90;99.90;;;;;;5045860;28;20534;-58
2023/09/09 01:34:42;;;;;;;11.05;9.23;;;19.90;99.90;;;;;;5045245;28;20080;-57
2023/09/09 01:37:08;;;;;;;11.88;9.20;;;19.80;99.90;;;;;;5045089;28;20403;-58
2023/09/09 01:39:34;;;;;;;10.93;9.27;;;19.80;99.90;;;;;;5046827;28;20045;-57
2023/09/09 01:41:59;;;;;;;10.10;8.27;;;19.80;99.90;;;;;;5044119;28;20128;-57
2023/09/09 01:44:25;;;;;;;13.32;9.07;;;19.80;99.90;;;;;;5034922;28;20036;-58
2023/09/09 01:46:51;;;;;;;10.10;8.50;;;19.80;99.90;;;;;;5046890;28;20041;-55
2023/09/09 01:49:16;;;;;;;9.60;8.27;;;19.80;99.90;;;;;;5044942;28;20562;-58
2023/09/09 01:51:43;;;;;;;11.73;7.38;;;19.70;99.90;;;;;;5048699;28;20162;-57
2023/09/09 01:54:09;;;;;;;9.15;7.75;;;19.70;99.90;;;;;;5044559;28;20044;-58
2023/09/09 01:56:35;;;;;;;8.63;7.72;;;19.70;99.90;;;;;;5046918;28;20368;-57
2023/09/09 01:59:00;;;;;;;12.35;8.00;;;19.70;99.90;;;;;;5044341;28;20044;-56
2023/09/09 02:01:26;;;;;;;12.57;8.50;;;19.70;99.90;;;;;;5045250;28;20044;-56
2023/09/09 02:03:52;;;;;;;12.30;9.68;;;19.60;99.90;;;;;;5047717;28;20180;-58
2023/09/09 02:06:18;;;;;;;11.50;9.90;;;19.60;99.90;;;;;;5047148;28;20041;-58
2023/09/09 02:08:44;;;;;;;12.10;9.10;;;19.60;99.90;;;;;;5039402;28;20063;-56
2023/09/09 02:11:10;;;;;;;12.15;9.82;;;19.60;99.90;;;;;;5042720;28;20484;-57
2023/09/09 02:13:35;;;;;;;12.70;10.57;;;19.60;99.90;;;;;;5048062;28;20056;-56
2023/09/09 02:16:07;;;;;;;13.65;11.30;;;19.50;99.90;;;;;;5048753;28;20144;-58
2023/09/09 02:18:37;;;;;;;12.70;11.05;;;19.50;99.90;;;;;;5053498;28;20056;-58
2023/09/09 02:21:04;;;;;;;11.82;10.15;;;19.50;99.90;;;;;;5048794;28;20079;-58
2023/09/09 02:23:29;;;;;;;12.18;10.00;;;19.40;99.90;;;;;;5046291;28;20045;-57
2023/09/09 02:25:56;;;;;;;10.70;8.95;;;19.40;99.90;;;;;;5047533;28;20033;-58
2023/09/09 02:28:22;;;;;;;10.70;8.93;;;19.40;99.90;;;;;;5048328;28;20048;-56
2023/09/09 02:30:48;;;;;;;8.85;7.95;;;19.40;99.90;;;;;;5040549;28;20490;-57
2023/09/09 02:33:14;;;;;;;8.18;7.38;;;19.30;99.90;;;;;;5027625;28;20835;-57
2023/09/09 02:35:43;;;;;;;8.80;7.32;;;19.30;99.90;;;;;;5032387;28;20508;-58
2023/09/09 02:38:09;;;;;;;8.27;7.10;;;19.20;99.90;;;;;;5035164;28;20049;-57
2023/09/09 02:40:35;;;;;;;12.18;9.05;;;19.20;99.90;;;;;;5035465;28;20060;-56
2023/09/09 02:43:01;;;;;;;12.25;9.60;;;19.20;99.90;;;;;;5039253;28;20131;-56
2023/09/09 02:45:27;;;;;;;14.63;11.98;;;19.20;99.90;;;;;;5035765;28;20033;-56
2023/09/09 02:47:53;;;;;;;12.73;11.05;;;19.10;99.90;;;;;;5016684;28;20045;-57
2023/09/09 02:50:19;;;;;;;16.20;12.50;;;19.10;99.90;;;;;;5034785;28;20075;-56
2023/09/09 02:52:47;;;;;;;13.32;10.10;;;19.10;99.90;;;;;;5038457;28;20088;-57
2023/09/09 02:55:13;;;;;;;12.88;10.43;;;19.10;99.90;;;;;;5038141;28;20106;-57
2023/09/09 02:57:38;;;;;;;15.68;11.32;;;19.10;99.90;;;;;;5036314;28;20052;-56
2023/09/09 03:00:06;;;;;;;16.23;11.40;;;19.10;99.90;;;;;;5033137;28;20045;-57
2023/09/09 03:02:32;;;;;;;13.05;11.43;;;19.10;99.90;;;;;;5032758;28;20503;-58
2023/09/09 03:04:58;;;;;;;12.98;10.98;;;19.10;99.90;;;;;;5028466;28;20041;-58
2023/09/09 03:07:24;;;;;;;13.80;10.77;;;19.10;99.90;;;;;;5037375;28;20049;-58
2023/09/09 03:09:49;;;;;;;13.88;11.00;;;19.10;99.90;;;;;;5028704;28;20052;-57
2023/09/09 03:12:20;;;;;;;13.90;11.20;;;19.00;99.90;;;;;;5035875;28;20072;-57
2023/09/09 03:14:47;;;;;;;17.58;13.88;;;19.00;99.90;;;;;;5033707;28;20048;-58
2023/09/09 03:17:13;;;;;;;20.77;15.48;;;19.00;99.90;;;;;;5036331;28;20059;-58
2023/09/09 03:19:39;;;;;;;16.38;14.20;;;19.00;99.90;;;;;;5035527;28;20033;-57
2023/09/09 03:22:05;;;;;;;17.20;14.57;;;18.90;99.90;;;;;;5034472;28;20993;-57
2023/09/09 03:24:30;;;;;;;17.52;14.23;;;18.90;99.90;;;;;;5033360;28;20033;-57
2023/09/09 03:26:56;;;;;;;18.70;14.90;;;18.90;99.90;;;;;;5037233;28;20041;-58
2023/09/09 03:29:22;;;;;;;17.90;14.05;;;18.90;99.90;;;;;;5036083;28;20044;-57
2023/09/09 03:31:48;;;;;;;16.83;13.68;;;18.90;99.90;;;;;;5036753;28;20566;-57
2023/09/09 03:34:13;;;;;;;16.45;13.90;;;18.90;99.90;;;;;;5024294;28;20088;-58
2023/09/09 03:36:40;;;;;;;18.42;15.02;;;18.90;99.90;;;;;;5034243;28;20041;-57
2023/09/09 03:39:05;;;;;;;14.90;13.00;;;18.90;99.90;;;;;;5032918;28;20040;-58
2023/09/09 03:41:31;;;;;;;15.50;13.80;;;18.90;99.90;;;;;;5027628;28;20073;-57
2023/09/09 03:43:57;;;;;;;18.27;15.57;;;18.80;99.90;;;;;;5038899;28;20060;-58
2023/09/09 03:46:23;;;;;;;18.88;16.08;;;18.90;99.90;;;;;;5036696;28;20037;-57
2023/09/09 03:48:49;;;;;;;18.40;14.98;;;18.90;99.90;;;;;;5038157;28;20045;-56
2023/09/09 03:51:15;;;;;;;19.80;17.65;;;18.90;99.90;;;;;;5036712;28;20420;-57
2023/09/09 03:53:41;;;;;;;20.38;17.85;;;18.90;99.90;;;;;;5040623;28;20063;-57
2023/09/09 03:56:07;;;;;;;19.25;16.35;;;18.90;99.90;;;;;;5042579;28;20049;-58
2023/09/09 03:58:32;;;;;;;23.00;16.65;;;18.90;99.90;;;;;;5034866;28;20052;-57
2023/09/09 04:01:09;;;;;;;20.25;17.70;;;18.90;99.90;;;;;;5034809;28;20381;-57
2023/09/09 04:03:36;;;;;;;21.90;18.50;;;19.00;99.90;;;;;;5038961;28;20036;-57
2023/09/09 04:06:07;;;;;;;22.40;18.33;;;19.00;99.90;;;;;;5033682;28;20041;-57
2023/09/09 04:08:34;;;;;;;25.67;18.45;;;19.00;99.90;;;;;;5037364;28;20083;-57
2023/09/09 04:11:00;;;;;;;24.17;19.77;;;19.00;99.90;;;;;;5035111;28;20037;-56
2023/09/09 04:13:26;;;;;;;23.08;19.17;;;19.00;99.90;;;;;;5035171;28;20442;-57
2023/09/09 04:15:53;;;;;;;25.05;21.00;;;19.00;99.90;;;;;;5038174;28;20118;-58
2023/09/09 04:18:19;;;;;;;20.95;17.40;;;19.00;99.90;;;;;;5036816;28;20048;-58
2023/09/09 04:20:45;;;;;;;22.95;18.73;;;19.00;99.90;;;;;;5037689;28;20380;-57
2023/09/09 04:23:11;;;;;;;22.88;19.27;;;19.00;99.90;;;;;;5039055;28;20498;-57
2023/09/09 04:25:37;;;;;;;18.42;16.25;;;19.00;99.90;;;;;;5037693;28;20439;-57
2023/09/09 04:28:03;;;;;;;20.38;17.92;;;19.00;99.90;;;;;;5036844;28;20044;-57
2023/09/09 04:30:29;;;;;;;27.17;20.65;;;19.00;99.90;;;;;;5037572;28;20518;-57
2023/09/09 04:32:54;;;;;;;25.38;22.05;;;19.00;99.90;;;;;;5038750;28;20053;-59
2023/09/09 04:35:20;;;;;;;26.33;21.02;;;19.00;99.90;;;;;;5039289;28;20577;-57
2023/09/09 04:37:46;;;;;;;27.92;21.42;;;19.10;99.90;;;;;;5038486;28;20052;-57
2023/09/09 04:40:12;;;;;;;30.00;21.80;;;19.10;99.90;;;;;;5034310;28;20668;-57
2023/09/09 04:42:38;;;;;;;28.50;22.30;;;19.10;99.90;;;;;;5023697;28;20481;-59
2023/09/09 04:45:06;;;;;;;24.60;19.40;;;19.10;99.90;;;;;;5030119;28;20080;-58
2023/09/09 04:47:32;;;;;;;24.73;20.52;;;19.00;99.90;;;;;;5043121;28;20052;-58
2023/09/09 04:49:58;;;;;;;28.42;21.63;;;19.00;99.90;;;;;;5039120;28;20792;-57
2023/09/09 04:52:24;;;;;;;25.45;20.23;;;19.00;99.90;;;;;;5038534;28;20091;-57
2023/09/09 04:54:49;;;;;;;28.17;21.65;;;18.90;99.90;;;;;;5031894;28;20568;-57
2023/09/09 04:57:16;;;;;;;28.33;22.02;;;18.90;99.90;;;;;;5035253;28;20083;-57
2023/09/09 04:59:42;;;;;;;27.02;21.75;;;19.00;99.90;;;;;;5035503;28;20391;-54
2023/09/09 05:02:08;;;;;;;32.85;22.20;;;19.00;99.90;;;;;;5036819;28;20565;-57
2023/09/09 05:04:33;;;;;;;28.25;22.50;;;19.00;99.90;;;;;;5034748;28;20512;-58
2023/09/09 05:07:00;;;;;;;34.90;21.98;;;19.00;99.90;;;;;;5032978;28;20132;-56
2023/09/09 05:09:27;;;;;;;29.13;20.92;;;19.00;99.90;;;;;;5034995;28;20488;-57
2023/09/09 05:11:52;;;;;;;30.20;22.13;;;19.00;99.90;;;;;;5034299;28;20450;-56
2023/09/09 05:14:18;;;;;;;26.67;21.27;;;19.00;99.90;;;;;;5034682;28;20055;-57
2023/09/09 05:16:44;;;;;;;28.10;21.52;;;19.10;99.90;;;;;;5037713;28;20521;-57
2023/09/09 05:19:09;;;;;;;28.25;21.65;;;19.10;99.90;;;;;;5038272;28;20613;-58
2023/09/09 05:21:35;;;;;;;26.05;21.27;;;19.10;99.90;;;;;;5033124;28;20032;-58
2023/09/09 05:24:01;;;;;;;28.17;21.20;;;19.10;99.90;;;;;;5036296;28;20846;-56
2023/09/09 05:26:27;;;;;;;28.92;21.58;;;19.20;99.90;;;;;;5029331;28;21968;-58
2023/09/09 05:28:52;;;;;;;27.98;21.05;;;19.10;99.90;;;;;;5035147;28;20497;-57
2023/09/09 05:31:18;;;;;;;25.00;20.95;;;19.10;99.90;;;;;;5033265;28;20442;-58
2023/09/09 05:33:44;;;;;;;27.77;21.92;;;19.10;99.90;;;;;;5035172;28;20128;-56
2023/09/09 05:36:09;;;;;;;30.25;22.77;;;19.10;99.90;;;;;;5031969;28;20115;-57
2023/09/09 05:38:36;;;;;;;27.38;21.83;;;19.10;99.90;;;;;;5038776;28;20056;-58
2023/09/09 05:41:02;;;;;;;29.63;22.33;;;19.10;99.90;;;;;;5031227;28;20064;-62
2023/09/09 05:43:28;;;;;;;27.45;21.08;;;19.10;99.90;;;;;;5013944;28;20434;-62
2023/09/09 05:45:56;;;;;;;23.70;20.35;;;19.10;99.90;;;;;;5021277;28;20056;-60
2023/09/09 05:48:22;;;;;;;26.00;20.88;;;19.10;99.90;;;;;;5033825;28;20164;-61
2023/09/09 05:50:48;;;;;;;25.85;21.48;;;19.10;99.90;;;;;;5017088;28;20056;-62
2023/09/09 05:53:14;;;;;;;28.40;22.15;;;19.20;99.90;;;;;;5026535;28;20045;-62
2023/09/09 05:55:39;;;;;;;29.23;22.13;;;19.20;99.90;;;;;;5030341;28;20375;-62
2023/09/09 05:58:05;;;;;;;27.55;21.65;;;19.20;99.90;;;;;;5010622;28;20049;-62
2023/09/09 06:00:31;;;;;;;26.88;22.40;;;19.20;99.90;;;;;;5032441;28;20045;-62
2023/09/09 06:02:57;;;;;;;26.23;21.42;;;19.20;99.90;;;;;;5033343;28;20393;-61
2023/09/09 06:05:23;;;;;;;30.83;22.75;;;19.20;99.90;;;;;;5031143;28;20044;-61
2023/09/09 06:07:48;;;;;;;28.13;21.63;;;19.30;99.90;;;;;;5015771;28;20079;-62
2023/09/09 06:10:14;;;;;;;27.75;21.17;;;19.30;99.90;;;;;;5030195;28;20033;-61
2023/09/09 06:12:40;;;;;;;29.27;22.38;;;19.30;99.90;;;;;;5033708;28;20040;-61
2023/09/09 06:15:06;;;;;;;26.70;22.13;;;19.30;99.90;;;;;;5033647;28;20702;-61
2023/09/09 06:17:32;;;;;;;27.58;23.10;;;19.40;99.90;;;;;;5022567;28;20047;-62
2023/09/09 06:19:57;;;;;;;27.08;22.13;;;19.40;99.90;;;;;;5020062;28;20040;-60
2023/09/09 06:22:23;;;;;;;29.98;23.90;;;19.30;99.90;;;;;;5034853;28;20147;-62
2023/09/09 06:24:49;;;;;;;27.88;23.45;;;19.40;99.90;;;;;;5030765;28;20036;-61
2023/09/09 06:27:15;;;;;;;31.10;24.48;;;19.40;99.90;;;;;;5035095;28;20076;-61
2023/09/09 06:29:40;;;;;;;33.70;25.60;;;19.40;99.90;;;;;;5034695;28;20456;-62
2023/09/09 06:32:09;;;;;;;34.38;25.88;;;19.40;99.90;;;;;;5031559;28;20033;-60
2023/09/09 06:34:35;;;;;;;32.85;23.70;;;19.50;99.90;;;;;;5031994;28;20057;-61
2023/09/09 06:37:01;;;;;;;29.88;24.75;;;19.50;99.90;;;;;;5033028;28;20048;-61
2023/09/09 06:39:27;;;;;;;33.58;24.98;;;19.60;99.90;;;;;;5030934;28;20438;-62
2023/09/09 06:41:53;;;;;;;32.13;25.83;;;19.60;99.90;;;;;;5034295;28;20041;-61
2023/09/09 06:44:18;;;;;;;32.83;25.38;;;19.60;99.90;;;;;;5032036;28;20053;-61
2023/09/09 06:46:44;;;;;;;30.42;23.90;;;19.70;99.90;;;;;;5031616;28;20041;-60
2023/09/09 06:49:10;;;;;;;31.23;25.50;;;19.70;99.90;;;;;;5031912;28;20029;-62
2023/09/09 06:51:35;;;;;;;35.72;27.02;;;19.80;99.90;;;;;;5028992;28;20040;-62
2023/09/09 06:54:02;;;;;;;32.13;25.63;;;19.80;99.90;;;;;;5022709;28;20081;-62
2023/09/09 06:56:28;;;;;;;35.72;25.90;;;19.90;99.90;;;;;;5020915;28;20045;-60
2023/09/09 06:58:54;;;;;;;32.47;26.38;;;19.90;99.90;;;;;;5035117;28;20121;-61
2023/09/09 07:01:19;;;;;;;29.05;24.48;;;19.90;99.90;;;;;;5028004;28;20152;-61
2023/09/09 07:03:45;;;;;;;34.40;26.88;;;20.00;99.90;;;;;;5033535;28;20041;-61
2023/09/09 07:06:11;;;;;;;32.72;27.23;;;20.00;99.90;;;;;;5029998;28;20404;-62
2023/09/09 07:08:40;;;;;;;32.60;26.88;;;20.00;99.90;;;;;;5035187;28;20495;-62
2023/09/09 07:11:06;;;;;;;33.78;26.15;;;20.10;99.90;;;;;;5026884;28;20553;-62
2023/09/09 07:13:31;;;;;;;33.13;27.17;;;20.10;99.90;;;;;;5031277;28;20041;-62
2023/09/09 07:15:57;;;;;;;33.60;27.20;;;20.20;99.90;;;;;;5034721;28;20090;-61
2023/09/09 07:18:23;;;;;;;35.00;28.10;;;20.30;99.90;;;;;;5032070;28;20052;-62
2023/09/09 07:20:49;;;;;;;35.00;27.70;;;20.30;99.90;;;;;;5035811;28;20416;-62
2023/09/09 07:23:16;;;;;;;35.97;27.83;;;20.30;99.90;;;;;;5035546;28;20513;-62
2023/09/09 07:25:43;;;;;;;36.30;27.30;;;20.40;99.90;;;;;;5039318;28;20498;-62
2023/09/09 07:28:09;;;;;;;35.15;28.05;;;20.50;99.90;;;;;;5039067;28;20049;-62
2023/09/09 07:30:35;;;;;;;36.17;27.55;;;20.60;99.90;;;;;;5037994;28;20033;-62
2023/09/09 07:33:01;;;;;;;36.30;29.08;;;20.60;99.90;;;;;;5041015;28;20067;-62
2023/09/09 07:35:27;;;;;;;34.55;28.15;;;20.70;99.90;;;;;;5039929;28;20049;-63
2023/09/09 07:37:52;;;;;;;36.50;28.15;;;20.80;99.90;;;;;;5020845;28;20669;-61
2023/09/09 07:40:18;;;;;;;32.88;28.67;;;20.90;99.90;;;;;;5037655;28;20060;-62
2023/09/09 07:42:44;;;;;;;33.90;26.42;;;21.00;99.90;;;;;;5036435;28;20071;-62
2023/09/09 07:45:10;;;;;;;36.55;29.67;;;21.20;99.90;;;;;;5035961;28;20033;-62
2023/09/09 07:47:36;;;;;;;34.13;29.27;;;21.30;99.90;;;;;;5037843;28;20087;-61
2023/09/09 07:50:02;;;;;;;40.90;30.10;;;21.40;99.90;;;;;;5035676;28;20040;-62
2023/09/09 07:52:28;;;;;;;35.60;29.17;;;21.50;99.90;;;;;;5034885;28;20095;-61
2023/09/09 07:54:54;;;;;;;32.10;27.67;;;21.60;99.90;;;;;;5036856;28;20040;-62
2023/09/09 07:57:20;;;;;;;36.40;29.23;;;21.80;99.90;;;;;;5027649;28;20164;-62
2023/09/09 07:59:47;;;;;;;37.70;28.77;;;21.90;99.90;;;;;;5029011;28;20057;-62
2023/09/09 08:02:13;;;;;;;31.45;26.23;;;22.00;99.90;;;;;;5033303;28;20089;-61
2023/09/09 08:04:39;;;;;;;29.73;25.88;;;22.10;99.90;;;;;;5038184;28;20084;-62
2023/09/09 08:07:05;;;;;;;31.08;25.45;;;22.30;99.90;;;;;;5039270;28;20187;-63
2023/09/09 08:09:32;;;;;;;35.42;27.30;;;22.40;99.90;;;;;;5036387;28;20041;-62
2023/09/09 08:11:58;;;;;;;30.75;25.15;;;22.60;99.90;;;;;;5039559;28;20495;-61
2023/09/09 08:14:24;;;;;;;30.88;25.58;;;22.70;99.90;;;;;;5042754;28;20151;-62
2023/09/09 08:16:50;;;;;;;32.55;27.33;;;22.70;99.90;;;;;;5045931;28;20463;-62
2023/09/09 08:19:16;;;;;;;29.15;25.23;;;22.90;99.90;;;;;;5041312;28;20044;-62
2023/09/09 08:21:42;;;;;;;31.67;26.98;;;22.90;99.90;;;;;;5041644;28;20057;-62
2023/09/09 08:24:08;;;;;;;30.38;24.73;;;23.10;99.90;;;;;;5043796;28;20053;-62
2023/09/09 08:26:33;;;;;;;29.13;22.98;;;23.20;99.90;;;;;;5042936;28;20037;-61
2023/09/09 08:28:59;;;;;;;27.60;23.35;;;23.40;99.90;;;;;;5040826;28;20071;-62
2023/09/09 08:31:25;;;;;;;26.05;23.25;;;23.50;99.90;;;;;;5038726;28;20468;-62
2023/09/09 08:33:51;;;;;;;25.75;23.02;;;23.60;99.90;;;;;;5042225;28;20123;-62
2023/09/09 08:36:17;;;;;;;24.05;21.50;;;23.70;99.90;;;;;;5031295;28;20041;-62
2023/09/09 08:38:43;;;;;;;26.50;21.27;;;23.80;99.90;;;;;;5044110;28;20053;-63
2023/09/09 08:41:08;;;;;;;27.17;21.95;;;24.00;99.90;;;;;;5044206;28;20059;-63
2023/09/09 08:43:53;;;;;;;24.95;22.00;;;24.10;99.90;;;;;;5042546;28;20048;-62
2023/09/09 08:46:21;;;;;;;25.23;21.25;;;24.30;99.90;;;;;;5043745;28;20510;-63
2023/09/09 08:48:51;;;;;;;25.92;21.77;;;24.50;99.90;;;;;;5042090;28;20049;-62
2023/09/09 08:51:19;;;;;;;23.25;20.52;;;24.60;99.90;;;;;;5053532;28;20522;-62
2023/09/09 08:53:47;;;;;;;24.00;21.42;;;24.70;99.90;;;;;;5047290;28;20036;-62
2023/09/09 08:56:16;;;;;;;21.70;19.15;;;24.90;99.90;;;;;;5049476;28;20056;-62
2023/09/09 08:58:42;;;;;;;25.77;22.75;;;25.10;99.90;;;;;;5050005;28;20040;-60
2023/09/09 09:01:08;;;;;;;23.02;18.88;;;25.20;99.90;;;;;;5049556;28;20040;-60
2023/09/09 09:03:34;;;;;;;23.90;19.20;;;25.30;99.90;;;;;;5050016;28;20389;-62
2023/09/09 09:06:05;;;;;;;23.70;20.77;;;25.40;99.90;;;;;;5008048;28;20067;-60
2023/09/09 09:08:32;;;;;;;24.60;19.58;;;25.60;99.90;;;;;;5044443;28;20037;-62
2023/09/09 09:10:58;;;;;;;23.92;20.45;;;25.70;99.90;;;;;;5043038;28;20048;-62
2023/09/09 09:13:25;;;;;;;21.02;18.30;;;25.80;99.90;;;;;;5043332;28;20097;-62
2023/09/09 09:15:50;;;;;;;22.40;19.33;;;25.90;99.90;;;;;;5041362;28;20541;-63
2023/09/09 09:18:16;;;;;;;24.50;19.17;;;26.00;99.90;;;;;;5049155;28;20040;-63
2023/09/09 09:20:42;;;;;;;22.02;19.77;;;26.10;99.90;;;;;;5048081;28;20131;-62
2023/09/09 09:23:13;;;;;;;27.83;19.88;;;26.30;99.90;;;;;;5022762;28;20377;-62
2023/09/09 09:25:47;;;;;;;29.20;22.60;;;26.40;99.90;;;;;;5034382;28;20032;-63
2023/09/09 09:28:16;;;;;;;24.63;21.23;;;26.50;99.90;;;;;;5018560;28;20045;-61
2023/09/09 09:30:43;;;;;;;22.25;19.75;;;26.70;99.90;;;;;;5039453;28;20124;-62
2023/09/09 09:33:08;;;;;;;26.55;22.30;;;26.80;99.90;;;;;;5037777;28;20554;-62
2023/09/09 09:35:36;;;;;;;31.50;22.45;;;26.90;99.90;;;;;;5037127;28;20102;-63
2023/09/09 09:38:09;;;;;;;27.40;21.52;;;27.00;99.90;;;;;;5037570;28;20123;-62
2023/09/09 09:40:36;;;;;;;26.90;21.35;;;27.10;99.90;;;;;;5035559;28;20056;-63
2023/09/09 09:43:02;;;;;;;22.73;18.30;;;27.20;99.90;;;;;;5038034;28;20812;-62
2023/09/09 09:45:29;;;;;;;30.05;21.55;;;27.40;99.90;;;;;;5034848;28;22405;-62
2023/09/09 09:47:58;;;;;;;25.50;21.30;;;27.50;99.90;;;;;;5036909;28;20118;-62
2023/09/09 09:50:30;;;;;;;26.88;21.27;;;27.60;99.90;;;;;;5031428;28;20049;-62
2023/09/09 09:53:05;;;;;;;;;;;27.70;99.90;;;;;;5037781;28;20036;-62
2023/09/09 09:55:36;;;;;;;27.40;23.15;;;27.80;99.90;;;;;;5033933;28;20007;-62
2023/09/09 09:58:04;;;;;;;26.73;22.45;;;27.90;99.90;;;;;;5038543;28;20089;-62
2023/09/09 10:00:30;;;;;;;23.83;21.05;;;28.10;99.90;;;;;;5039035;28;20113;-63
2023/09/09 10:02:58;;;;;;;27.77;23.48;;;28.20;99.90;;;;;;5038328;28;20098;-61
2023/09/09 10:05:25;;;;;;;25.70;22.10;;;28.30;99.90;;;;;;5038251;28;20041;-63
2023/09/09 10:08:27;;;;;;;25.30;21.95;;;28.40;99.90;;;;;;5025176;28;20056;-62
2023/09/09 10:11:05;;;;;;;26.10;20.90;;;28.70;99.90;;;;;;5027095;28;20045;-62
2023/09/09 10:13:37;;;;;;;25.20;22.42;;;28.80;99.90;;;;;;5039936;28;20579;-62
2023/09/09 10:16:06;;;;;;;25.80;22.13;;;29.00;99.90;;;;;;5037361;28;20049;-62
2023/09/09 10:18:32;;;;;;;26.98;20.80;;;29.10;99.90;;;;;;5037322;28;20049;-62
2023/09/09 10:20:59;;;;;;;28.63;23.90;;;29.30;99.90;;;;;;5039121;28;20052;-61
2023/09/09 10:23:27;;;;;;;29.80;24.85;;;29.30;99.80;;;;;;5038700;28;20091;-60
2023/09/09 10:25:53;;;;;;;28.00;23.42;;;29.40;99.30;;;;;;5035965;28;20076;-62
2023/09/09 10:28:24;;;;;;;31.27;24.20;;;29.40;98.80;;;;;;5035467;28;20051;-62
2023/09/09 10:30:53;;;;;;;31.92;23.00;;;29.40;98.50;;;;;;5026307;28;20048;-61
2023/09/09 10:33:20;;;;;;;27.75;23.88;;;29.50;98.50;;;;;;5032078;28;20055;-60
2023/09/09 10:35:50;;;;;;;25.00;20.15;;;29.60;98.50;;;;;;5027879;28;20041;-61
2023/09/09 10:38:19;;;;;;;26.02;23.08;;;29.70;98.50;;;;;;5043341;28;20045;-62
2023/09/09 10:40:49;;;;;;;30.33;23.67;;;29.80;98.10;;;;;;5046855;28;20491;-60
2023/09/09 10:43:15;;;;;;;31.15;23.13;;;29.90;97.20;;;;;;5049795;28;20033;-62
2023/09/09 10:45:45;;;;;;;29.90;21.35;;;30.00;96.50;;;;;;5044096;28;20048;-62
2023/09/09 10:48:11;;;;;;;22.70;19.45;;;30.10;96.10;;;;;;5051033;28;20570;-62
2023/09/09 10:50:44;;;;;;;24.10;19.42;;;30.10;95.90;;;;;;5027396;28;20045;-62
2023/09/09 10:53:14;;;;;;;26.45;18.70;;;30.30;95.40;;;;;;5047519;28;20045;-62
2023/09/09 10:55:41;;;;;;;20.33;16.63;;;30.40;94.60;;;;;;5047627;28;20067;-62
2023/09/09 10:58:08;;;;;;;19.73;15.32;;;30.40;93.90;;;;;;5044879;28;20068;-61
2023/09/09 11:00:39;;;;;;;21.02;16.65;;;30.50;93.10;;;;;;5051525;28;20460;-62
2023/09/09 11:03:20;;;;;;;20.23;15.40;;;30.40;92.60;;;;;;5045907;28;20053;-62
2023/09/09 11:06:10;;;;;;;18.85;14.32;;;30.50;91.60;;;;;;5049836;28;20041;-61
2023/09/09 11:08:42;;;;;;;20.10;16.00;;;30.60;91.60;;;;;;5038108;28;20128;-62
2023/09/09 11:11:13;;;;;;;18.52;15.00;;;30.60;91.60;;;;;;5047096;28;20035;-62
2023/09/09 11:13:41;;;;;;;17.70;14.55;;;30.70;91.20;;;;;;5031710;28;20055;-63
2023/09/09 11:16:07;;;;;;;23.02;18.83;;;30.80;90.90;;;;;;5046732;28;20044;-61
2023/09/09 11:18:37;;;;;;;24.55;19.30;;;30.90;90.70;;;;;;5046676;28;20110;-60
2023/09/09 11:21:03;;;;;;;26.15;20.42;;;31.10;91.10;;;;;;5040225;28;20390;-62
2023/09/09 11:23:31;;;;;;;24.75;20.20;;;31.20;91.00;;;;;;5038061;28;20040;-62
2023/09/09 11:25:57;;;;;;;22.30;19.40;;;31.30;90.40;;;;;;5021212;28;20090;-61
2023/09/09 11:28:24;;;;;;;19.48;17.25;;;31.40;89.60;;;;;;5022453;28;20056;-60
2023/09/09 11:30:49;;;;;;;24.08;19.88;;;31.30;88.00;;;;;;5025983;28;20878;-57
2023/09/09 11:33:24;;;;;;;18.63;12.55;;;31.30;86.10;;;;;;5021059;28;20056;-58
2023/09/09 11:35:50;;;;;;;17.80;15.43;;;31.30;86.40;;;;;;5029908;28;20048;-57
2023/09/09 11:38:16;;;;;;;16.92;12.85;;;31.40;85.10;;;;;;5034884;28;20041;-58
2023/09/09 11:40:44;;;;;;;12.13;9.90;;;31.50;83.80;;;;;;5030185;28;20055;-59
2023/09/09 11:43:10;;;;;;;15.10;12.55;;;31.60;83.40;;;;;;5031455;28;20056;-59
2023/09/09 11:45:36;;;;;;;18.27;14.60;;;31.70;81.50;;;;;;5033349;28;20069;-58
2023/09/09 11:48:03;;;;;;;15.20;13.60;;;31.80;80.10;;;;;;5029153;28;20048;-58
2023/09/09 11:50:40;;;;;;;15.00;12.77;;;31.80;79.90;;;;;;5031859;28;20132;-59
2023/09/09 11:53:05;;;;;;;18.38;13.63;;;31.90;79.90;;;;;;5036118;28;20033;-59
2023/09/09 11:55:31;;;;;;;13.85;11.27;;;32.00;78.00;;;;;;5035169;28;20495;-57
2023/09/09 11:57:57;;;;;;;18.42;11.60;;;32.10;78.00;;;;;;5032073;28;20044;-58
2023/09/09 12:00:22;;;;;;;13.88;11.75;;;32.20;78.20;;;;;;5037468;28;20070;-57
2023/09/09 12:02:48;;;;;;;13.38;10.48;;;32.40;77.10;;;;;;5008228;28;20033;-58
2023/09/09 12:05:15;;;;;;;13.95;11.48;;;32.50;76.10;;;;;;5034250;28;20471;-57
2023/09/09 12:07:42;;;;;;;11.27;9.15;;;32.60;74.90;;;;;;5027977;28;20059;-58
2023/09/09 12:10:15;;;;;;;15.27;12.45;;;32.70;75.30;;;;;;5019068;28;20043;-56
2023/09/09 12:25:46;;;;;;;15.48;10.20;;;32.70;72.90;;;;;;5002074;27;1317473;-59
2023/09/09 12:28:17;;;;;;;12.15;9.38;;;33.50;69.40;;;;;;5006397;28;20056;-59
2023/09/09 12:30:43;;;;;;;13.98;9.45;;;33.50;68.90;;;;;;5034493;28;20539;-58
2023/09/09 12:33:13;;;;;;;9.73;7.57;;;33.50;68.10;;;;;;5028893;28;20722;-59
2023/09/09 12:35:44;;;;;;;11.02;8.18;;;33.40;68.10;;;;;;5019916;28;20048;-59
2023/09/09 12:38:10;;;;;;;12.93;8.80;;;33.50;68.10;;;;;;5036218;28;20041;-59
2023/09/09 12:40:47;;;;;;;11.02;8.18;;;33.60;67.80;;;;;;5036077;28;20548;-59